ようこそ Fly Ecuador Virtual

Fly Ecuador Virtual es una organización creada con el fin de brindar una plataforma que permita a los pilotos virtuales, principalmente ecuatorianos, tener un lugar donde registrar sus horas de vuelo, sus certificados de conocimiento adquiridos, las rutas que han volado y los destinos que han visitado. Así mismo, se busca ayudar a todos los pilotos a expandir su conocimiento sobre el mundo de la aviación real y virtual por medio de publicaciones, foros y cursos en línea.

A diferencia de las aerolíneas virtuales tradicionales, Fly Ecuador Virtual no simula las operaciones de una aerolínea del mundo real en específico. Un miembro de Fly Ecuador Virtual tiene toda la libertad de volar cualquier aeronave que opere en el espacio aéreo ecuatoriano real, en cualquier ruta, sea esta nacional o internacional, IFR o VFR, aeronaves monomotor, multimotor o helicópteros. Todo esto con el objetivo de expandir las operaciones virtuales dentro del espacio aéreo ecuatoriano, creando una comunidad en la que se compartan conocimientos y experiencias que beneficien a todos sus integrantes.

El crecimiento de Fly Ecuador Virtual depende de la participación conjunta de todos sus miembros, por este motivo se incentiva la participación en línea a través de los diferentes medios descritos más adelante en este sitio web.

 スタティスティックス

パイロット 77
使用機材 0
ルート 0
乗務時間: 10517.24
合計フライト 1688
レギュラーフライト 0
合計チャーター 1735
% レギュラーフライト 0.00 %

 最新のフライト

コールサイン乗務員出発到着日付フライト時間
ECU018Luis Heredia  SEGU  SEQM 2018-12-09 0.47
ECU024Arturo Carvajal  SVMI  SEQM 2018-12-09 2.18
ECU018Luis Heredia  SEGU  SEQM 2018-11-25 0.59
ECU024Arturo Carvajal  SEGU  SEQM 2018-11-25 0.54
ECU024Arturo Carvajal  SEGS  MRLB 2018-11-11 1.99

 新人パイロット

パイロット加入
ECU087-Sahid Muñoz2018-06-02
ECU083-diego trujillo2017-12-18
ECU081-Carlos Torres Vasquez2017-12-06
ECU080-Rolando Soria2017-11-07
ECU084-YORLI MORALES2017-10-30

 Consultar METAR

METAR
SEGU - José Joaquín de Olmedo International Airport, Guayaquil, ECU
Distance from station: N 0mi, 0km
Updated: Wed, 12-Dec-2018 3:00am PST
Mostly Cloudy
Mostly Cloudy
 Wind from SSW
Wind: SSW 10 mph , 17 km/h
Temperature: 75°F , 24°C
Dew Point: 72°F , 22°C
Humidity: 89%
Barometer: 29.85 inHg , 1011 hPa
Clouds: Mostly Cloudy
Visibility: 6 miles , 10 km
Cloud details: Mostly Cloudy 3300 ft
Mostly Cloudy 10000 ft
2018/12/12 11:00 SEGU 121100Z 20009KT 9999 BKN033 BKN100 24/22 Q1011 NOSIG RMK A2987
 
SEQM - Aeropuerto Internacional Mariscal Sucre, ECU
Distance from station: NE 120mi, 200km
Updated: Wed, 12-Dec-2018 3:00am PST
Mist
Mist
 Wind from varies
Wind: varies 1 mph , 2 km/h
Temperature: 52°F , 11°C
Dew Point: 52°F , 11°C
Humidity: 100%
Barometer: 30.3 inHg , 1026 hPa
Summary: Mist
Visibility: 1 mile , 2 km
2018/12/12 11:00 SEQM 121100Z VRB01KT 2000 0800S R36/0800U BR ////// 11/11 Q1026 BECMG AT1130 3000 RMK A3032
 
SECU - Mariscal Lamar Airpor, ECU
Distance from station: ENE 80mi, 120km
Updated: Wed, 12-Dec-2018 3:00am PST
Patches of fog, Mostly cloudy
Patches of fog, Mostly cloudy
 Wind from S
Wind: S 2 mph , 4 km/h
Temperature: 54°F , 12°C
Dew Point: 54°F , 12°C
Humidity: 100%
Barometer: 30.36 inHg , 1028 hPa
Summary: Patches of Fog
Clouds: Mostly Cloudy
Visibility: 5 miles , 8 km
Cloud details: Partly Cloudy 300 ft
Mostly Cloudy 3000 ft
2018/12/12 11:00 SECU 121100Z 17002KT 8000 BCFG SCT003 BKN030 12/12 Q1028
 
SELT - Cotopaxi International Airport, ECU
Distance from station: NW 21mi, 34km
Updated: Wed, 12-Dec-2018 3:00am PST
Mostly Cloudy
Mostly Cloudy
 Wind from S
Wind: S 5 mph , 7 km/h
Temperature: 50°F , 10°C
Wind Chill: 48°F , 9°C
Dew Point: 48°F , 9°C
Humidity: 94%
Barometer: 30.45 inHg , 1031 hPa
Clouds: Mostly Cloudy
Visibility: 6 miles , 10 km
Cloud details: Partly Cloudy 1000 ft
Mostly Cloudy 3000 ft
2018/12/12 11:00 SELT 121100Z 18004KT 9999 SCT010 BKN030 10/09 Q1031
 
SEMT - Eloy Alfaro International Airport, ECU
Distance from station: SSE 70mi, 100km
Updated: Wed, 12-Dec-2018 3:00am PST
Mostly Cloudy
Mostly Cloudy
 Wind from SSW
Wind: SSW 5 mph , 7 km/h
Temperature: 73°F , 23°C
Dew Point: 70°F , 21°C
Humidity: 89%
Barometer: 29.88 inHg , 1012 hPa
Clouds: Mostly Cloudy
Visibility: 6 miles , 10 km
Cloud details: Mostly Cloudy 2000 ft
2018/12/12 11:00 SEMT 121100Z 21004KT 9999 BKN020 23/21 Q1012 RMK A2991

Metar display script from Saratoga-Weather.org

 ツイート

 NOTAMS

NOTAMDate



Fly Ecuador Virtual 2018 | System by VAM